createdAt,value
2019-04-01T00:01:42.160Z,7.33
2019-04-01T00:06:37.744Z,7.77
2019-04-01T00:11:32.762Z,7.47
2019-04-01T00:16:30.636Z,7.03
2019-04-01T00:21:26.434Z,7.37
2019-04-01T00:26:21.177Z,7.47
2019-04-01T00:31:23.727Z,7.60
2019-04-01T00:36:24.621Z,7.03
2019-04-01T00:41:36.721Z,7.20
2019-04-01T00:46:33.095Z,7.10
2019-04-01T00:51:30.706Z,7.57
2019-04-01T00:56:25.652Z,7.27
2019-04-01T01:01:20.739Z,6.70
2019-04-01T01:06:15.516Z,7.37
2019-04-01T01:11:10.230Z,6.77
2019-04-01T01:16:05.038Z,6.87
2019-04-01T01:21:02.790Z,6.83
2019-04-01T01:25:57.533Z,6.70
2019-04-01T01:30:52.675Z,6.60
2019-04-01T01:35:55.150Z,5.97
2019-04-01T01:40:51.919Z,6.50
2019-04-01T01:46:12.488Z,6.97
2019-04-01T01:51:19.674Z,6.97
2019-04-01T01:56:16.090Z,7.03
2019-04-01T02:01:10.841Z,6.77
2019-04-01T02:06:05.569Z,6.83
2019-04-01T02:11:00.316Z,6.40
2019-04-01T02:15:55.058Z,6.60
2019-04-01T02:20:54.852Z,6.40
2019-04-01T02:25:49.593Z,6.43
2019-04-01T02:30:44.610Z,6.67
2019-04-01T02:35:52.065Z,7.00
2019-04-01T02:40:46.795Z,6.30
2019-04-01T02:45:50.581Z,6.30
2019-04-01T02:50:45.395Z,6.10
2019-04-01T02:55:42.856Z,6.20
2019-04-01T03:00:44.936Z,5.83
2019-04-01T03:05:40.343Z,6.07
2019-04-01T03:10:45.570Z,5.97
2019-04-01T03:15:53.759Z,5.77
2019-04-01T03:20:48.484Z,5.60
2019-04-01T03:26:01.143Z,5.47
2019-04-01T03:30:53.863Z,5.30
2019-04-01T03:35:51.624Z,5.53
2019-04-01T03:40:46.365Z,6.00
2019-04-01T03:45:43.854Z,5.13
2019-04-01T03:50:38.598Z,4.97
2019-04-01T03:55:39.870Z,4.90
2019-04-01T04:00:34.604Z,4.70
2019-04-01T04:05:31.192Z,4.73
2019-04-01T04:10:25.931Z,4.77
2019-04-01T04:15:23.179Z,4.60
2019-04-01T04:20:25.599Z,4.07
2019-04-01T04:25:21.123Z,4.10
2019-04-01T04:30:27.100Z,3.80
2019-04-01T04:35:22.106Z,3.70
2019-04-01T04:40:28.347Z,3.87
2019-04-01T04:45:23.866Z,3.93
2019-04-01T04:50:24.271Z,4.10
2019-04-01T04:55:19.255Z,3.57
2019-04-01T05:00:17.147Z,3.33
2019-04-01T05:05:11.982Z,3.67
2019-04-01T05:10:07.384Z,3.40
2019-04-01T05:15:03.195Z,3.80
2019-04-01T05:20:04.177Z,3.53
2019-04-01T05:25:01.386Z,3.37
2019-04-01T05:29:56.566Z,3.87
2019-04-01T05:34:55.665Z,3.57
2019-04-01T05:39:50.668Z,3.00
2019-04-01T05:44:45.680Z,3.07
2019-04-01T05:49:40.487Z,3.07
2019-04-01T05:54:35.257Z,3.47
2019-04-01T05:59:30.332Z,3.83
2019-04-01T06:04:25.138Z,3.30
2019-04-01T06:09:20.163Z,3.00
2019-04-01T06:14:21.117Z,3.00
2019-04-01T06:19:15.978Z,3.10
2019-04-01T06:24:12.817Z,3.33
2019-04-01T06:29:07.561Z,3.60
2019-04-01T06:34:03.434Z,3.20
2019-04-01T06:39:01.608Z,3.07
2019-04-01T06:43:56.691Z,3.43
2019-04-01T06:48:51.762Z,3.00
2019-04-01T06:53:46.591Z,3.53
2019-04-01T06:58:41.351Z,3.10
2019-04-01T07:03:36.150Z,3.80
2019-04-01T07:08:31.238Z,3.03
2019-04-01T07:13:26.063Z,3.17
2019-04-01T07:18:20.857Z,3.33
2019-04-01T07:23:15.956Z,2.90
2019-04-01T07:28:13.905Z,3.70
2019-04-01T07:33:08.750Z,3.50
2019-04-01T07:38:04.592Z,2.83
2019-04-01T07:43:00.399Z,3.27
2019-04-01T07:47:55.220Z,2.90
2019-04-01T07:52:50.357Z,3.03
2019-04-01T07:57:45.395Z,3.00
2019-04-01T08:02:40.402Z,3.60
2019-04-01T08:07:35.309Z,3.63
2019-04-01T08:12:31.224Z,3.30
2019-04-01T08:17:31.890Z,3.40
2019-04-01T08:22:33.130Z,4.33
2019-04-01T08:27:27.917Z,3.80
2019-04-01T08:32:22.694Z,3.70
2019-04-01T08:37:17.460Z,4.30
2019-04-01T08:42:12.617Z,4.10
2019-04-01T08:47:10.589Z,3.77
2019-04-01T08:52:05.432Z,4.47
2019-04-01T08:57:00.296Z,4.53
2019-04-01T09:02:01.478Z,4.87
2019-04-01T09:06:56.222Z,6.30
2019-04-01T09:11:52.768Z,6.30
2019-04-01T09:16:47.618Z,8.43
2019-04-01T09:21:42.390Z,7.73
2019-04-01T09:26:37.191Z,8.97
2019-04-01T09:31:32.009Z,8.70
2019-04-01T09:36:26.867Z,8.60
2019-04-01T09:41:21.732Z,11.07
2019-04-01T09:46:16.662Z,10.77
2019-04-01T09:51:11.759Z,11.03
2019-04-01T09:56:06.852Z,11.47
2019-04-01T10:01:01.712Z,10.93
2019-04-01T10:05:56.593Z,11.93
2019-04-01T10:10:51.630Z,11.37
2019-04-01T10:15:46.470Z,12.10
2019-04-01T10:20:42.285Z,12.53
2019-04-01T10:25:37.053Z,11.83
2019-04-01T10:30:31.934Z,11.97
2019-04-01T10:35:27.090Z,12.00
2019-04-01T10:40:21.958Z,12.00
2019-04-01T10:45:18.115Z,11.10
2019-04-01T10:50:14.084Z,10.87
2019-04-01T10:55:11.541Z,11.47
2019-04-01T11:00:07.955Z,11.97
2019-04-01T11:05:04.294Z,11.20
2019-04-01T11:09:59.182Z,11.60
2019-04-01T11:14:54.057Z,11.80
2019-04-01T11:19:52.211Z,13.63
2019-04-01T11:24:47.176Z,10.50
2019-04-01T11:29:42.363Z,11.03
2019-04-01T11:34:40.319Z,11.07
2019-04-01T11:39:36.222Z,9.27
2019-04-01T11:44:31.153Z,10.40
2019-04-01T11:49:26.011Z,11.00
2019-04-01T11:54:22.897Z,10.40
2019-04-01T11:59:18.282Z,10.87
2019-04-01T12:04:13.073Z,11.00
2019-04-01T12:09:14.102Z,10.20
2019-04-01T12:14:08.936Z,10.77
2019-04-01T12:19:12.466Z,11.23
2019-04-01T12:24:43.572Z,11.10
2019-04-01T12:29:38.465Z,10.40
2019-04-01T12:34:33.543Z,11.67
2019-04-01T12:39:54.863Z,10.90
2019-04-01T12:45:11.378Z,11.03
2019-04-01T12:50:19.710Z,10.07
2019-04-01T12:55:37.202Z,10.00
2019-04-01T13:01:08.725Z,9.63
2019-04-01T13:07:08.456Z,9.07
2019-04-01T13:11:25.829Z,9.27
2019-04-01T13:16:32.066Z,9.00
2019-04-01T13:21:44.081Z,8.60
2019-04-01T13:27:39.745Z,9.50
2019-04-01T13:38:39.277Z,8.90
2019-04-01T13:43:51.242Z,9.37
2019-04-01T13:49:03.986Z,9.03
2019-04-01T13:59:27.648Z,9.83
2019-04-01T14:04:22.794Z,10.40
2019-04-01T14:09:31.020Z,10.20
2019-04-01T14:14:35.844Z,9.70
2019-04-01T14:19:30.678Z,9.13
2019-04-01T14:24:25.573Z,9.50
2019-04-01T14:29:20.424Z,9.20
2019-04-01T14:34:22.920Z,9.70
2019-04-01T14:39:21.872Z,10.30
2019-04-01T14:44:27.019Z,8.67
2019-04-01T14:49:30.967Z,9.53
2019-04-01T14:54:25.777Z,9.57
2019-04-01T14:59:20.543Z,9.80
2019-04-01T15:04:15.466Z,9.87
2019-04-01T15:09:38.279Z,9.53
2019-04-01T15:14:38.788Z,9.23
2019-04-01T15:19:33.924Z,9.00
2019-04-01T15:24:29.082Z,8.67
2019-04-01T15:29:23.864Z,7.80
2019-04-01T15:34:20.399Z,8.10
2019-04-01T15:39:22.301Z,7.30
2019-04-01T15:44:17.055Z,6.63
2019-04-01T15:49:11.811Z,7.03
2019-04-01T15:54:06.683Z,7.30
2019-04-01T15:59:01.435Z,7.63
2019-04-01T16:03:56.166Z,6.57
2019-04-01T16:08:50.919Z,7.20
2019-04-01T16:13:45.675Z,6.90
2019-04-01T16:18:40.958Z,7.10
2019-04-01T16:23:36.934Z,7.40
2019-04-01T16:28:31.742Z,6.83
2019-04-01T16:33:26.496Z,6.90
2019-04-01T16:38:21.345Z,7.50
2019-04-01T16:43:30.075Z,7.70
2019-04-01T16:48:26.888Z,7.50
2019-04-01T16:53:21.962Z,7.20
2019-04-01T16:58:16.730Z,7.10
2019-04-01T17:03:13.880Z,7.10
2019-04-01T17:08:19.412Z,7.00
2019-04-01T17:13:14.153Z,7.37
2019-04-01T17:18:09.850Z,6.50
2019-04-01T17:23:04.957Z,6.80
2019-04-01T17:27:59.834Z,7.93
2019-04-01T17:32:54.640Z,8.50
2019-04-01T17:37:49.416Z,11.13
2019-04-01T17:42:50.482Z,7.47
2019-04-01T17:47:46.321Z,8.03
2019-04-01T17:52:50.132Z,7.97
2019-04-01T17:57:45.312Z,7.90
2019-04-01T18:02:40.938Z,8.23
2019-04-01T18:07:36.232Z,8.00
2019-04-01T18:12:31.191Z,7.80
2019-04-01T18:17:26.039Z,8.40
2019-04-01T18:22:21.144Z,8.43
2019-04-01T18:27:19.015Z,7.80
2019-04-01T18:32:14.271Z,7.57
2019-04-01T18:37:10.088Z,8.77
2019-04-01T18:42:05.179Z,8.57
2019-04-01T18:47:03.806Z,8.13
2019-04-01T18:52:01.881Z,7.80
2019-04-01T18:57:10.638Z,9.37
2019-04-01T19:02:15.026Z,9.17
2019-04-01T19:07:09.879Z,8.37
2019-04-01T19:12:06.866Z,7.67
2019-04-01T19:17:11.181Z,8.17
2019-04-01T19:22:05.989Z,8.63
2019-04-01T19:27:00.935Z,8.13
2019-04-01T19:31:56.009Z,8.23
2019-04-01T19:36:50.835Z,8.83
2019-04-01T19:41:51.496Z,7.37
2019-04-01T19:46:46.580Z,8.03
2019-04-01T19:51:41.663Z,8.07
2019-04-01T19:56:37.522Z,8.50
2019-04-01T20:01:32.387Z,8.47
2019-04-01T20:06:27.188Z,8.37
2019-04-01T20:11:21.980Z,8.70
2019-04-01T20:16:17.207Z,8.93
2019-04-01T20:21:16.308Z,9.17
2019-04-01T20:26:12.136Z,9.20
2019-04-01T20:31:07.063Z,8.30
2019-04-01T20:36:01.903Z,9.10
2019-04-01T20:40:56.685Z,9.00
2019-04-01T20:45:51.422Z,8.70
2019-04-01T20:50:46.502Z,9.03
2019-04-01T20:55:48.027Z,9.40
2019-04-01T21:00:38.883Z,9.30
2019-04-01T21:05:33.803Z,9.30
2019-04-01T21:10:29.156Z,8.70
2019-04-01T21:15:23.976Z,9.97
2019-04-01T21:20:22.416Z,10.00
2019-04-01T21:25:18.442Z,9.73
2019-04-01T21:30:13.435Z,11.10
2019-04-01T21:35:09.474Z,9.87
2019-04-01T21:40:05.424Z,10.20
2019-04-01T21:45:00.185Z,9.67
2019-04-01T21:50:06.166Z,9.40
2019-04-01T21:55:01.210Z,9.97
2019-04-01T21:59:56.238Z,9.20
2019-04-01T22:04:52.432Z,8.90
2019-04-01T22:09:47.183Z,9.60
2019-04-01T22:14:42.274Z,8.90
2019-04-01T22:19:39.292Z,9.07
2019-04-01T22:24:34.359Z,9.90
2019-04-01T22:29:29.317Z,9.13
2019-04-01T22:34:24.069Z,9.10
2019-04-01T22:39:26.880Z,8.67
2019-04-01T22:44:18.292Z,9.10
2019-04-01T22:49:15.350Z,8.97
2019-04-01T22:54:10.090Z,9.30
2019-04-01T22:59:05.242Z,9.83
2019-04-01T23:04:00.022Z,9.80
2019-04-01T23:08:55.771Z,8.50
2019-04-01T23:13:50.514Z,9.40
2019-04-01T23:18:45.525Z,9.43
2019-04-01T23:23:40.302Z,9.27
2019-04-01T23:28:38.206Z,8.97
2019-04-01T23:33:33.222Z,9.13
2019-04-01T23:38:28.492Z,9.30
2019-04-01T23:43:23.233Z,8.93
2019-04-01T23:48:18.319Z,9.20
2019-04-01T23:53:21.114Z,9.00
2019-04-01T23:58:15.869Z,9.30
